Portada
METAR-TAF:

METAR-TAF

Aeropuertos :

Harbin, China

Aeropuerto Internacional de Harbin

latitud: 45-45N, longitud: 126-46E, altitud: 143 m

Observación

El informe se hizo hace 15 minutos, a las 23:00 UTC
Viento 6 kt del este
Temperatura 9°C
Humedad 40%
Presión 1028 hPa
Visibilidad 10 km o más
sin nubes por debajo de 1500 m y sin presencia de cumulonimbus.

METAR: ZYHB 212300Z 10003MPS CAVOK 09/M04 Q1028 NOSIG

Hora: 07:15 (23:15 UTC)

Pronóstico

El informe se hizo hace 8 horas y 1 minutos, a las 15:14 UTC
Pronóstico válido del 21 a las 18 UTC al 22 a las 18 UTC
Viento 8 kt del noreste con ráfagas de 17 kt
Visibilidad: 6000 m
Nubes dispersas a una altura de 3000 ft

TAF: ZYHB 211514Z 2118/2218 05004G09MPS 6000 SCT030 TX16/2206Z TN02/2121Z

Observaciones y pronósticos meteorológicos de más de 4000 aeropuertos (mensajes METAR y TAF).

Los puntos amarillos y rojos representan las estaciones disponibles.

Ponga el ratón en el punto deseado para ver el nombre de la estación.

Haga clic para ver las observaciones y los pronósticos meteorológicos.

Para cambiar el mapa : haga clic en los botones verdes con una cruz de color negro para hacer un zoom, en el botón verde con un guión para alejar o en las flechas verdes para mapas adyacentes.


METAR-TAF: